createdAt,value
2019-03-28T00:02:51.583Z,17.21
2019-03-28T00:17:40.650Z,18.37
2019-03-28T00:22:47.832Z,17.30
2019-03-28T00:27:55.407Z,16.11
2019-03-28T00:38:17.425Z,13.70
2019-03-28T00:43:17.458Z,16.55
2019-03-28T00:48:06.043Z,14.15
2019-03-28T00:53:13.138Z,15.89
2019-03-28T00:58:21.524Z,18.19
2019-03-28T01:03:28.744Z,19.90
2019-03-28T01:08:36.186Z,19.61
2019-03-28T01:13:44.377Z,19.00
2019-03-28T01:18:51.799Z,18.27
2019-03-28T01:23:58.939Z,17.13
2019-03-28T01:29:07.425Z,18.66
2019-03-28T01:34:16.952Z,18.64
2019-03-28T01:39:15.370Z,15.71
2019-03-28T01:44:22.683Z,16.51
2019-03-28T01:49:29.968Z,14.74
2019-03-28T01:54:51.081Z,18.71
2019-03-28T01:59:38.459Z,17.71
2019-03-28T02:04:46.510Z,16.42
2019-03-28T02:09:54.791Z,20.41
2019-03-28T02:15:15.763Z,18.26
2019-03-28T02:20:04.127Z,16.05
2019-03-28T02:25:11.298Z,17.20
2019-03-28T02:30:18.505Z,17.15
2019-03-28T02:35:26.743Z,15.63
2019-03-28T02:40:35.022Z,17.95
2019-03-28T02:45:42.523Z,14.77
2019-03-28T02:50:49.735Z,15.01
2019-03-28T02:55:57.800Z,15.27
2019-03-28T03:01:06.312Z,15.33
2019-03-28T03:06:14.404Z,16.64
2019-03-28T03:11:22.678Z,15.36
2019-03-28T03:16:30.984Z,14.71
2019-03-28T03:21:38.385Z,13.80
2019-03-28T03:26:45.677Z,17.55
2019-03-28T03:31:53.885Z,17.41
2019-03-28T03:37:00.337Z,17.73
2019-03-28T03:42:07.557Z,17.40
2019-03-28T03:47:14.670Z,16.19
2019-03-28T03:52:23.008Z,18.06
2019-03-28T03:57:31.122Z,15.98
2019-03-28T04:07:40.372Z,17.73
2019-03-28T04:12:47.631Z,17.23
2019-03-28T04:17:55.889Z,15.36
2019-03-28T04:23:03.879Z,13.38
2019-03-28T04:28:31.790Z,18.65
2019-03-28T04:33:10.596Z,20.05
2019-03-28T04:38:18.846Z,17.68
2019-03-28T04:43:26.092Z,18.91
2019-03-28T04:48:34.289Z,20.26
2019-03-28T04:53:41.705Z,19.30
2019-03-28T04:58:49.731Z,16.69
2019-03-28T05:03:58.188Z,18.73
2019-03-28T05:09:18.169Z,16.71
2019-03-28T05:14:19.428Z,20.92
2019-03-28T05:19:06.629Z,16.67
2019-03-28T05:24:13.890Z,17.40
2019-03-28T05:29:35.006Z,17.93
2019-03-28T05:34:36.141Z,17.85
2019-03-28T05:39:24.190Z,19.53
2019-03-28T05:44:31.393Z,18.09
2019-03-28T05:49:39.671Z,20.77
2019-03-28T05:54:46.985Z,16.31
2019-03-28T05:59:55.226Z,21.02
2019-03-28T06:05:02.759Z,21.23
2019-03-28T06:10:22.739Z,20.21
2019-03-28T06:15:23.894Z,20.73
2019-03-28T06:20:24.852Z,19.15
2019-03-28T06:25:13.248Z,22.04
2019-03-28T06:30:34.296Z,21.23
2019-03-28T06:35:22.693Z,20.51
2019-03-28T06:40:31.347Z,21.28
2019-03-28T06:45:38.234Z,23.32
2019-03-28T06:50:46.379Z,19.47
2019-03-28T06:55:55.700Z,18.54
2019-03-28T07:01:02.868Z,20.18
2019-03-28T07:06:11.199Z,21.45
2019-03-28T07:11:19.419Z,21.10
2019-03-28T07:16:26.594Z,22.37
2019-03-28T07:21:47.527Z,20.89
2019-03-28T07:26:48.754Z,24.01
2019-03-28T07:31:49.723Z,26.45
2019-03-28T07:36:37.986Z,27.57
2019-03-28T07:41:46.178Z,23.00
2019-03-28T07:47:06.498Z,27.30
2019-03-28T07:51:53.583Z,33.58
2019-03-28T07:57:01.819Z,34.33
2019-03-28T08:02:22.929Z,41.11
2019-03-28T08:07:10.178Z,42.93
2019-03-28T08:12:22.798Z,39.19
2019-03-28T08:17:39.185Z,42.18
2019-03-28T08:22:29.642Z,40.31
2019-03-28T08:27:48.106Z,43.47
2019-03-28T08:32:35.387Z,40.76
2019-03-28T08:37:42.740Z,39.57
2019-03-28T08:43:02.816Z,32.16
2019-03-28T08:48:03.852Z,33.23
2019-03-28T08:52:52.028Z,38.51
2019-03-28T08:58:01.346Z,34.94
2019-03-28T09:03:12.566Z,31.45
2019-03-28T09:08:12.974Z,24.91
2019-03-28T09:13:00.248Z,27.44
2019-03-28T09:18:08.581Z,29.36
2019-03-28T09:23:15.714Z,32.92
2019-03-28T09:28:36.304Z,23.93
2019-03-28T09:33:26.481Z,27.15
2019-03-28T09:38:24.883Z,25.29
2019-03-28T09:48:41.302Z,23.22
2019-03-28T09:54:01.443Z,20.16
2019-03-28T09:58:48.727Z,18.71
2019-03-28T10:08:58.035Z,17.28
2019-03-28T10:14:05.264Z,15.77
2019-03-28T10:19:12.828Z,15.36
2019-03-28T10:24:19.994Z,11.64
2019-03-28T10:29:41.129Z,13.61
2019-03-28T10:34:29.242Z,12.25
2019-03-28T10:39:37.640Z,11.11
2019-03-28T10:44:57.678Z,14.46
2019-03-28T10:49:46.024Z,11.76
2019-03-28T10:54:53.273Z,13.71
2019-03-28T11:00:00.723Z,12.15
2019-03-28T11:05:08.988Z,9.11
2019-03-28T11:10:16.590Z,8.89
2019-03-28T11:15:36.730Z,10.03
2019-03-28T11:20:24.059Z,11.54
2019-03-28T11:25:32.360Z,8.70
2019-03-28T11:30:39.913Z,10.38
2019-03-28T11:36:00.076Z,13.92
2019-03-28T11:40:47.279Z,9.00
2019-03-28T11:45:55.542Z,10.14
2019-03-28T11:51:02.971Z,8.47
2019-03-28T11:56:10.199Z,9.12
2019-03-28T12:01:30.535Z,9.18
2019-03-28T12:06:18.692Z,10.05
2019-03-28T12:11:26.110Z,9.01
2019-03-28T12:16:34.232Z,11.67
2019-03-28T12:21:42.653Z,11.63
2019-03-28T12:26:52.131Z,9.08
2019-03-28T12:32:13.841Z,12.21
2019-03-28T12:36:54.649Z,10.59
2019-03-28T12:42:02.852Z,11.27
2019-03-28T12:47:11.338Z,11.06
2019-03-28T12:52:18.802Z,12.42
2019-03-28T12:57:25.935Z,12.44
2019-03-28T13:02:33.485Z,10.14
2019-03-28T13:07:53.626Z,12.14
2019-03-28T13:12:53.858Z,12.88
2019-03-28T13:17:41.049Z,11.04
2019-03-28T13:22:51.912Z,9.92
2019-03-28T13:28:09.514Z,10.79
2019-03-28T13:32:56.804Z,11.34
2019-03-28T13:43:05.981Z,13.20
2019-03-28T13:53:38.776Z,10.68
2019-03-28T13:58:29.469Z,10.88
2019-03-28T14:03:42.313Z,11.28
2019-03-28T14:08:26.946Z,10.84
2019-03-28T14:18:36.382Z,9.28
2019-03-28T14:23:37.913Z,9.62
2019-03-28T14:38:57.375Z,10.81
2019-03-28T14:48:39.276Z,9.69
2019-03-28T14:53:49.692Z,8.52
2019-03-28T14:58:59.753Z,10.55
2019-03-28T15:03:38.658Z,10.89
2019-03-28T15:08:46.965Z,8.57
2019-03-28T15:14:07.295Z,8.94
2019-03-28T15:19:13.612Z,11.34
2019-03-28T15:24:17.225Z,10.60
2019-03-28T15:29:21.401Z,10.41
2019-03-28T15:34:08.654Z,8.55
2019-03-28T15:39:29.856Z,11.10
2019-03-28T15:44:18.253Z,10.63
2019-03-28T15:49:38.545Z,10.59
2019-03-28T15:54:29.525Z,9.23
2019-03-28T15:59:27.894Z,9.88
2019-03-28T16:04:49.292Z,9.79
2019-03-28T16:09:36.641Z,9.06
2019-03-28T16:14:45.710Z,12.82
2019-03-28T16:19:54.301Z,10.11
2019-03-28T16:25:02.805Z,10.90
2019-03-28T16:30:24.278Z,11.05
2019-03-28T16:35:14.795Z,11.41
2019-03-28T16:45:27.656Z,12.70
2019-03-28T16:50:25.395Z,14.96
2019-03-28T16:55:45.635Z,12.73
2019-03-28T17:00:45.619Z,11.44
2019-03-28T17:05:34.819Z,13.02
2019-03-28T17:10:41.382Z,12.89
2019-03-28T17:15:48.736Z,13.40
2019-03-28T17:20:56.939Z,13.68
2019-03-28T17:26:04.805Z,13.68
2019-03-28T17:31:28.380Z,14.22
2019-03-28T17:36:27.096Z,13.01
2019-03-28T17:41:31.869Z,13.06
2019-03-28T17:46:28.943Z,16.94
2019-03-28T17:51:40.186Z,14.88
2019-03-28T18:01:46.626Z,14.00
2019-03-28T18:06:54.434Z,14.30
2019-03-28T18:17:15.976Z,13.33
2019-03-28T18:22:16.101Z,13.83
2019-03-28T18:27:16.225Z,14.68
2019-03-28T18:32:17.340Z,14.62
2019-03-28T18:37:18.728Z,14.57
2019-03-28T18:42:17.581Z,15.35
2019-03-28T18:47:07.124Z,15.09
2019-03-28T18:52:26.845Z,16.78
2019-03-28T18:57:27.087Z,19.62
2019-03-28T19:02:27.401Z,17.72
2019-03-28T19:07:27.634Z,15.25
2019-03-28T19:12:27.753Z,16.04
2019-03-28T19:17:28.129Z,15.72
2019-03-28T19:27:21.091Z,15.69
2019-03-28T19:32:29.835Z,16.03
2019-03-28T19:37:48.513Z,17.85
2019-03-28T19:42:44.003Z,14.92
2019-03-28T19:47:53.409Z,15.96
2019-03-28T19:52:54.804Z,17.33
2019-03-28T19:57:55.013Z,18.49
2019-03-28T20:02:55.149Z,16.58
2019-03-28T20:12:59.092Z,21.75
2019-03-28T20:17:59.303Z,21.31
2019-03-28T20:23:00.203Z,18.60
2019-03-28T20:28:01.655Z,19.87
2019-03-28T20:32:48.804Z,20.95
2019-03-28T20:37:57.280Z,23.74
2019-03-28T20:43:18.395Z,18.66
2019-03-28T20:48:19.432Z,22.73
2019-03-28T20:53:20.523Z,21.08
2019-03-28T20:58:20.764Z,21.14
2019-03-28T21:03:20.918Z,22.89
2019-03-28T21:08:21.153Z,23.54
2019-03-28T21:13:21.304Z,24.44
2019-03-28T21:18:22.650Z,21.48
2019-03-28T21:23:23.625Z,22.00
2019-03-28T21:28:25.172Z,21.75
2019-03-28T21:33:25.331Z,21.04
2019-03-28T21:38:14.052Z,22.35
2019-03-28T21:43:35.208Z,23.07
2019-03-28T21:48:35.555Z,21.26
2019-03-28T21:53:22.850Z,20.90
2019-03-28T21:58:43.209Z,22.28
2019-03-28T22:03:44.286Z,22.27
2019-03-28T22:08:44.379Z,22.37
2019-03-28T22:13:45.372Z,22.76
2019-03-28T22:18:33.904Z,21.60
2019-03-28T22:28:44.714Z,24.52
2019-03-28T22:34:05.875Z,23.94
2019-03-28T22:38:54.023Z,22.92
2019-03-28T22:44:14.347Z,24.11
2019-03-28T22:49:14.239Z,23.22
2019-03-28T22:54:02.435Z,23.63
2019-03-28T22:59:23.472Z,24.35
2019-03-28T23:04:24.609Z,22.64
2019-03-28T23:09:25.122Z,24.76
2019-03-28T23:14:24.933Z,23.63
2019-03-28T23:19:26.146Z,24.18
2019-03-28T23:24:27.438Z,25.92
2019-03-28T23:29:14.881Z,24.61
2019-03-28T23:34:35.477Z,27.32
2019-03-28T23:39:35.701Z,26.40
2019-03-28T23:44:35.844Z,26.77
2019-03-28T23:49:38.476Z,27.26
2019-03-28T23:54:23.284Z,28.52
2019-03-28T23:59:43.698Z,26.71
